sensor_id;sensor_type;location;lat;lon;timestamp;temperature;humidity
5196;DHT22;2617;51.006;12.436;2024-01-11T00:04:42;-10.60;99.90
5196;DHT22;2617;51.006;12.436;2024-01-11T00:09:45;-10.60;99.90
5196;DHT22;2617;51.006;12.436;2024-01-11T00:14:48;-10.70;99.90
5196;DHT22;2617;51.006;12.436;2024-01-11T00:19:50;-10.70;99.90
5196;DHT22;2617;51.006;12.436;2024-01-11T00:24:53;-10.70;99.90
5196;DHT22;2617;51.006;12.436;2024-01-11T00:29:55;-10.70;99.90
5196;DHT22;2617;51.006;12.436;2024-01-11T00:34:58;-10.60;99.90
5196;DHT22;2617;51.006;12.436;2024-01-11T00:40:01;-10.60;99.90
5196;DHT22;2617;51.006;12.436;2024-01-11T00:45:04;-10.50;99.90
5196;DHT22;2617;51.006;12.436;2024-01-11T00:50:07;-10.50;99.90
5196;DHT22;2617;51.006;12.436;2024-01-11T00:55:11;-10.60;99.90
5196;DHT22;2617;51.006;12.436;2024-01-11T01:00:14;-10.60;99.90
5196;DHT22;2617;51.006;12.436;2024-01-11T01:05:17;-10.60;99.90
5196;DHT22;2617;51.006;12.436;2024-01-11T01:10:20;-10.60;99.90
5196;DHT22;2617;51.006;12.436;2024-01-11T01:15:22;-10.60;99.90
5196;DHT22;2617;51.006;12.436;2024-01-11T01:20:25;-10.50;99.90
5196;DHT22;2617;51.006;12.436;2024-01-11T01:25:27;-10.50;99.90
5196;DHT22;2617;51.006;12.436;2024-01-11T01:30:30;-10.50;99.90
5196;DHT22;2617;51.006;12.436;2024-01-11T01:35:32;-10.50;99.90
5196;DHT22;2617;51.006;12.436;2024-01-11T01:40:35;-10.50;99.90
5196;DHT22;2617;51.006;12.436;2024-01-11T01:45:37;-10.50;99.90
5196;DHT22;2617;51.006;12.436;2024-01-11T01:50:39;-10.50;99.90
5196;DHT22;2617;51.006;12.436;2024-01-11T01:55:42;-10.50;99.90
5196;DHT22;2617;51.006;12.436;2024-01-11T02:00:46;-10.50;99.90
5196;DHT22;2617;51.006;12.436;2024-01-11T02:05:48;-10.50;99.90
5196;DHT22;2617;51.006;12.436;2024-01-11T02:10:51;-10.60;99.90
5196;DHT22;2617;51.006;12.436;2024-01-11T02:15:53;-10.60;99.90
5196;DHT22;2617;51.006;12.436;2024-01-11T02:20:56;-10.70;99.90
5196;DHT22;2617;51.006;12.436;2024-01-11T02:25:58;-10.80;99.90
5196;DHT22;2617;51.006;12.436;2024-01-11T02:31:01;-10.90;99.90
5196;DHT22;2617;51.006;12.436;2024-01-11T02:36:04;-10.90;99.90
5196;DHT22;2617;51.006;12.436;2024-01-11T02:41:07;-10.90;99.90
5196;DHT22;2617;51.006;12.436;2024-01-11T02:46:09;-11.00;99.90
5196;DHT22;2617;51.006;12.436;2024-01-11T02:51:12;-10.90;99.90
5196;DHT22;2617;51.006;12.436;2024-01-11T02:56:15;-10.90;99.90
5196;DHT22;2617;51.006;12.436;2024-01-11T03:01:19;-10.90;99.90
5196;DHT22;2617;51.006;12.436;2024-01-11T03:06:21;-11.00;99.90
5196;DHT22;2617;51.006;12.436;2024-01-11T03:11:24;-11.10;99.90
5196;DHT22;2617;51.006;12.436;2024-01-11T03:16:27;-11.10;99.90
5196;DHT22;2617;51.006;12.436;2024-01-11T03:21:29;-11.10;99.90
5196;DHT22;2617;51.006;12.436;2024-01-11T03:26:32;-11.20;99.90
5196;DHT22;2617;51.006;12.436;2024-01-11T03:31:35;-11.20;99.90
5196;DHT22;2617;51.006;12.436;2024-01-11T03:36:37;-11.30;99.90
5196;DHT22;2617;51.006;12.436;2024-01-11T03:41:43;-11.20;99.90
5196;DHT22;2617;51.006;12.436;2024-01-11T03:46:47;-11.20;99.90
5196;DHT22;2617;51.006;12.436;2024-01-11T03:51:49;-11.20;99.90
5196;DHT22;2617;51.006;12.436;2024-01-11T03:56:53;-11.10;99.90
5196;DHT22;2617;51.006;12.436;2024-01-11T04:01:55;-11.10;99.90
5196;DHT22;2617;51.006;12.436;2024-01-11T04:06:58;-11.10;99.90
5196;DHT22;2617;51.006;12.436;2024-01-11T04:12:00;-11.00;99.90
5196;DHT22;2617;51.006;12.436;2024-01-11T04:17:02;-11.00;99.90
5196;DHT22;2617;51.006;12.436;2024-01-11T04:22:05;-10.90;99.90
5196;DHT22;2617;51.006;12.436;2024-01-11T04:27:07;-10.90;99.90
5196;DHT22;2617;51.006;12.436;2024-01-11T04:32:10;-10.80;99.90
5196;DHT22;2617;51.006;12.436;2024-01-11T04:37:12;-10.70;99.90
5196;DHT22;2617;51.006;12.436;2024-01-11T04:42:15;-10.70;99.90
5196;DHT22;2617;51.006;12.436;2024-01-11T04:47:18;-10.60;99.90
5196;DHT22;2617;51.006;12.436;2024-01-11T04:52:21;-10.50;99.90
5196;DHT22;2617;51.006;12.436;2024-01-11T04:57:23;-10.50;99.90
5196;DHT22;2617;51.006;12.436;2024-01-11T05:02:25;-10.60;99.90
5196;DHT22;2617;51.006;12.436;2024-01-11T05:07:28;-10.50;99.90
5196;DHT22;2617;51.006;12.436;2024-01-11T05:12:30;-10.60;99.90
5196;DHT22;2617;51.006;12.436;2024-01-11T05:17:33;-10.70;99.90
5196;DHT22;2617;51.006;12.436;2024-01-11T05:22:35;-10.70;99.90
5196;DHT22;2617;51.006;12.436;2024-01-11T05:27:38;-10.80;99.90
5196;DHT22;2617;51.006;12.436;2024-01-11T05:32:40;-10.90;99.90
5196;DHT22;2617;51.006;12.436;2024-01-11T05:37:42;-10.90;99.90
5196;DHT22;2617;51.006;12.436;2024-01-11T05:42:45;-10.90;99.90
5196;DHT22;2617;51.006;12.436;2024-01-11T05:47:49;-10.90;99.90
5196;DHT22;2617;51.006;12.436;2024-01-11T05:52:51;-10.80;99.90
5196;DHT22;2617;51.006;12.436;2024-01-11T05:57:53;-10.70;99.90
5196;DHT22;2617;51.006;12.436;2024-01-11T06:02:56;-10.70;99.90
5196;DHT22;2617;51.006;12.436;2024-01-11T06:07:58;-10.60;99.90
5196;DHT22;2617;51.006;12.436;2024-01-11T06:13:01;-10.60;99.90
5196;DHT22;2617;51.006;12.436;2024-01-11T06:18:03;-10.60;99.90
5196;DHT22;2617;51.006;12.436;2024-01-11T06:23:06;-10.50;99.90
5196;DHT22;2617;51.006;12.436;2024-01-11T06:28:08;-10.50;99.90
5196;DHT22;2617;51.006;12.436;2024-01-11T06:33:11;-10.50;99.90
5196;DHT22;2617;51.006;12.436;2024-01-11T06:38:14;-10.50;99.90
5196;DHT22;2617;51.006;12.436;2024-01-11T06:43:17;-10.40;99.90
5196;DHT22;2617;51.006;12.436;2024-01-11T06:48:20;-10.50;99.90
5196;DHT22;2617;51.006;12.436;2024-01-11T06:53:23;-10.40;99.90
5196;DHT22;2617;51.006;12.436;2024-01-11T06:58:25;-10.40;99.90
5196;DHT22;2617;51.006;12.436;2024-01-11T07:03:28;-10.30;99.90
5196;DHT22;2617;51.006;12.436;2024-01-11T07:08:31;-10.30;99.90
5196;DHT22;2617;51.006;12.436;2024-01-11T07:13:34;-10.20;99.90
5196;DHT22;2617;51.006;12.436;2024-01-11T07:18:37;-10.10;99.90
5196;DHT22;2617;51.006;12.436;2024-01-11T07:23:40;-9.90;99.90
5196;DHT22;2617;51.006;12.436;2024-01-11T07:28:42;-9.90;99.90
5196;DHT22;2617;51.006;12.436;2024-01-11T07:33:45;-9.80;99.90
5196;DHT22;2617;51.006;12.436;2024-01-11T07:38:47;-9.70;99.90
5196;DHT22;2617;51.006;12.436;2024-01-11T07:43:50;-9.50;99.90
5196;DHT22;2617;51.006;12.436;2024-01-11T07:48:52;-9.40;99.90
5196;DHT22;2617;51.006;12.436;2024-01-11T07:53:55;-9.30;99.90
5196;DHT22;2617;51.006;12.436;2024-01-11T07:58:57;-9.10;99.90
5196;DHT22;2617;51.006;12.436;2024-01-11T08:04:00;-9.10;99.90
5196;DHT22;2617;51.006;12.436;2024-01-11T08:09:03;-9.00;99.90
5196;DHT22;2617;51.006;12.436;2024-01-11T08:14:06;-9.00;99.90
5196;DHT22;2617;51.006;12.436;2024-01-11T08:19:09;-9.00;99.90
5196;DHT22;2617;51.006;12.436;2024-01-11T08:24:11;-8.90;99.90
5196;DHT22;2617;51.006;12.436;2024-01-11T08:29:13;-8.90;99.90
5196;DHT22;2617;51.006;12.436;2024-01-11T08:34:16;-8.80;99.90
5196;DHT22;2617;51.006;12.436;2024-01-11T08:39:18;-8.70;99.90
5196;DHT22;2617;51.006;12.436;2024-01-11T08:44:21;-8.40;99.90
5196;DHT22;2617;51.006;12.436;2024-01-11T08:49:23;-8.20;99.90
5196;DHT22;2617;51.006;12.436;2024-01-11T08:54:26;-8.00;99.90
5196;DHT22;2617;51.006;12.436;2024-01-11T08:59:28;-7.80;99.90
5196;DHT22;2617;51.006;12.436;2024-01-11T09:04:31;-7.60;99.90
5196;DHT22;2617;51.006;12.436;2024-01-11T09:09:33;-7.40;99.90
5196;DHT22;2617;51.006;12.436;2024-01-11T09:14:36;-7.20;99.90
5196;DHT22;2617;51.006;12.436;2024-01-11T09:19:38;-7.10;99.90
5196;DHT22;2617;51.006;12.436;2024-01-11T09:24:41;-6.80;99.90
5196;DHT22;2617;51.006;12.436;2024-01-11T09:29:44;-6.80;99.90
5196;DHT22;2617;51.006;12.436;2024-01-11T09:34:46;-6.70;99.90
5196;DHT22;2617;51.006;12.436;2024-01-11T09:39:49;-6.60;99.90
5196;DHT22;2617;51.006;12.436;2024-01-11T09:44:51;-6.50;99.90
5196;DHT22;2617;51.006;12.436;2024-01-11T09:49:54;-6.30;99.90
5196;DHT22;2617;51.006;12.436;2024-01-11T09:54:59;-6.00;99.90
5196;DHT22;2617;51.006;12.436;2024-01-11T10:00:03;-6.00;99.90
5196;DHT22;2617;51.006;12.436;2024-01-11T10:05:06;-5.80;99.90
5196;DHT22;2617;51.006;12.436;2024-01-11T10:10:09;-5.60;99.90
5196;DHT22;2617;51.006;12.436;2024-01-11T10:15:11;-5.50;99.90
5196;DHT22;2617;51.006;12.436;2024-01-11T10:20:14;-5.30;99.90
5196;DHT22;2617;51.006;12.436;2024-01-11T10:25:17;-5.20;99.90
5196;DHT22;2617;51.006;12.436;2024-01-11T10:30:20;-5.10;99.90
5196;DHT22;2617;51.006;12.436;2024-01-11T10:35:23;-4.80;99.90
5196;DHT22;2617;51.006;12.436;2024-01-11T10:40:25;-4.60;99.90
5196;DHT22;2617;51.006;12.436;2024-01-11T10:45:28;-4.40;99.90
5196;DHT22;2617;51.006;12.436;2024-01-11T10:50:33;-4.40;99.90
5196;DHT22;2617;51.006;12.436;2024-01-11T10:55:33;-4.20;99.90
5196;DHT22;2617;51.006;12.436;2024-01-11T11:00:35;-4.20;99.90
5196;DHT22;2617;51.006;12.436;2024-01-11T11:05:38;-4.10;99.90
5196;DHT22;2617;51.006;12.436;2024-01-11T11:10:41;-3.60;99.90
5196;DHT22;2617;51.006;12.436;2024-01-11T11:15:45;-3.60;99.90
5196;DHT22;2617;51.006;12.436;2024-01-11T11:20:49;-3.30;99.90
5196;DHT22;2617;51.006;12.436;2024-01-11T11:25:54;-3.30;99.90
5196;DHT22;2617;51.006;12.436;2024-01-11T11:30:56;-3.30;99.90
5196;DHT22;2617;51.006;12.436;2024-01-11T11:35:58;-3.10;99.90
5196;DHT22;2617;51.006;12.436;2024-01-11T11:41:02;-2.70;99.90
5196;DHT22;2617;51.006;12.436;2024-01-11T11:46:04;-2.70;99.90
5196;DHT22;2617;51.006;12.436;2024-01-11T11:51:09;-2.10;99.90
5196;DHT22;2617;51.006;12.436;2024-01-11T11:56:12;-1.70;99.90
5196;DHT22;2617;51.006;12.436;2024-01-11T12:01:14;-1.80;99.90
5196;DHT22;2617;51.006;12.436;2024-01-11T12:06:17;-1.50;99.90
5196;DHT22;2617;51.006;12.436;2024-01-11T12:11:20;-1.30;99.90
5196;DHT22;2617;51.006;12.436;2024-01-11T12:16:23;-1.10;99.90
5196;DHT22;2617;51.006;12.436;2024-01-11T12:21:25;-0.80;99.90
5196;DHT22;2617;51.006;12.436;2024-01-11T12:26:28;-0.60;99.90
5196;DHT22;2617;51.006;12.436;2024-01-11T12:31:31;-0.50;99.90
5196;DHT22;2617;51.006;12.436;2024-01-11T12:36:34;-0.20;99.90
5196;DHT22;2617;51.006;12.436;2024-01-11T12:41:37;0.00;99.90
5196;DHT22;2617;51.006;12.436;2024-01-11T12:46:39;0.00;99.90
5196;DHT22;2617;51.006;12.436;2024-01-11T12:51:42;-0.20;99.90
5196;DHT22;2617;51.006;12.436;2024-01-11T12:56:45;-0.50;99.90
5196;DHT22;2617;51.006;12.436;2024-01-11T13:01:47;-0.50;99.90
5196;DHT22;2617;51.006;12.436;2024-01-11T13:06:50;-0.50;99.90
5196;DHT22;2617;51.006;12.436;2024-01-11T13:11:53;-0.60;99.90
5196;DHT22;2617;51.006;12.436;2024-01-11T13:16:56;-0.70;99.90
5196;DHT22;2617;51.006;12.436;2024-01-11T13:21:58;-0.70;99.90
5196;DHT22;2617;51.006;12.436;2024-01-11T13:27:02;-0.80;99.90
5196;DHT22;2617;51.006;12.436;2024-01-11T13:32:05;-0.90;99.90
5196;DHT22;2617;51.006;12.436;2024-01-11T13:37:08;-1.00;99.90
5196;DHT22;2617;51.006;12.436;2024-01-11T13:42:10;-1.20;99.90
5196;DHT22;2617;51.006;12.436;2024-01-11T13:47:12;-1.30;99.90
5196;DHT22;2617;51.006;12.436;2024-01-11T13:52:16;-1.40;99.90
5196;DHT22;2617;51.006;12.436;2024-01-11T13:57:18;-1.40;99.90
5196;DHT22;2617;51.006;12.436;2024-01-11T14:02:21;-1.30;99.90
5196;DHT22;2617;51.006;12.436;2024-01-11T14:07:24;-1.30;99.90
5196;DHT22;2617;51.006;12.436;2024-01-11T14:12:26;-1.40;99.90
5196;DHT22;2617;51.006;12.436;2024-01-11T14:17:29;-1.40;99.90
5196;DHT22;2617;51.006;12.436;2024-01-11T14:22:32;-1.30;99.90
5196;DHT22;2617;51.006;12.436;2024-01-11T14:27:36;-1.40;99.90
5196;DHT22;2617;51.006;12.436;2024-01-11T14:32:39;-1.40;99.90
5196;DHT22;2617;51.006;12.436;2024-01-11T14:37:42;-1.40;99.90
5196;DHT22;2617;51.006;12.436;2024-01-11T14:42:45;-1.70;99.90
5196;DHT22;2617;51.006;12.436;2024-01-11T14:47:47;-1.70;99.90
5196;DHT22;2617;51.006;12.436;2024-01-11T14:52:50;-1.80;99.90
5196;DHT22;2617;51.006;12.436;2024-01-11T14:57:52;-2.00;99.90
5196;DHT22;2617;51.006;12.436;2024-01-11T15:02:55;-2.20;99.90
5196;DHT22;2617;51.006;12.436;2024-01-11T15:07:57;-2.30;99.90
5196;DHT22;2617;51.006;12.436;2024-01-11T15:13:00;-2.60;99.90
5196;DHT22;2617;51.006;12.436;2024-01-11T15:18:04;-2.60;99.90
5196;DHT22;2617;51.006;12.436;2024-01-11T15:23:06;-2.70;99.90
5196;DHT22;2617;51.006;12.436;2024-01-11T15:28:09;-2.80;99.90
5196;DHT22;2617;51.006;12.436;2024-01-11T15:33:12;-3.10;99.90
5196;DHT22;2617;51.006;12.436;2024-01-11T15:38:15;-3.10;99.90
5196;DHT22;2617;51.006;12.436;2024-01-11T15:43:18;-3.10;99.90
5196;DHT22;2617;51.006;12.436;2024-01-11T15:48:20;-3.20;99.90
5196;DHT22;2617;51.006;12.436;2024-01-11T15:53:23;-3.40;99.90
5196;DHT22;2617;51.006;12.436;2024-01-11T15:58:26;-3.40;99.90
5196;DHT22;2617;51.006;12.436;2024-01-11T16:03:29;-3.40;99.90
5196;DHT22;2617;51.006;12.436;2024-01-11T16:08:31;-3.40;99.90
5196;DHT22;2617;51.006;12.436;2024-01-11T16:13:34;-3.50;99.90
5196;DHT22;2617;51.006;12.436;2024-01-11T16:18:36;-3.50;99.90
5196;DHT22;2617;51.006;12.436;2024-01-11T16:23:38;-3.60;99.90
5196;DHT22;2617;51.006;12.436;2024-01-11T16:28:41;-3.60;99.90
5196;DHT22;2617;51.006;12.436;2024-01-11T16:33:44;-3.60;99.90
5196;DHT22;2617;51.006;12.436;2024-01-11T16:38:46;-3.50;99.90
5196;DHT22;2617;51.006;12.436;2024-01-11T16:43:48;-3.50;99.90
5196;DHT22;2617;51.006;12.436;2024-01-11T16:48:51;-3.40;99.90
5196;DHT22;2617;51.006;12.436;2024-01-11T16:53:54;-3.40;99.90
5196;DHT22;2617;51.006;12.436;2024-01-11T16:58:57;-3.30;99.90
5196;DHT22;2617;51.006;12.436;2024-01-11T17:04:00;-3.40;99.90
5196;DHT22;2617;51.006;12.436;2024-01-11T17:09:02;-3.30;99.90
5196;DHT22;2617;51.006;12.436;2024-01-11T17:14:05;-3.40;99.90
5196;DHT22;2617;51.006;12.436;2024-01-11T17:19:08;-3.40;99.90
5196;DHT22;2617;51.006;12.436;2024-01-11T17:24:10;-3.40;99.90
5196;DHT22;2617;51.006;12.436;2024-01-11T17:29:13;-3.40;99.90
5196;DHT22;2617;51.006;12.436;2024-01-11T17:34:15;-3.40;99.90
5196;DHT22;2617;51.006;12.436;2024-01-11T17:39:18;-3.40;99.90
5196;DHT22;2617;51.006;12.436;2024-01-11T17:44:20;-3.40;99.90
5196;DHT22;2617;51.006;12.436;2024-01-11T17:49:22;-3.40;99.90
5196;DHT22;2617;51.006;12.436;2024-01-11T17:54:25;-3.40;99.90
5196;DHT22;2617;51.006;12.436;2024-01-11T17:59:27;-3.40;99.90
5196;DHT22;2617;51.006;12.436;2024-01-11T18:04:30;-3.30;99.90
5196;DHT22;2617;51.006;12.436;2024-01-11T18:09:33;-3.40;99.90
5196;DHT22;2617;51.006;12.436;2024-01-11T18:14:36;-3.30;99.90
5196;DHT22;2617;51.006;12.436;2024-01-11T18:19:38;-3.20;99.90
5196;DHT22;2617;51.006;12.436;2024-01-11T18:24:41;-3.20;99.90
5196;DHT22;2617;51.006;12.436;2024-01-11T18:29:43;-3.20;99.90
5196;DHT22;2617;51.006;12.436;2024-01-11T18:34:45;-3.20;99.90
5196;DHT22;2617;51.006;12.436;2024-01-11T18:39:49;-3.10;99.90
5196;DHT22;2617;51.006;12.436;2024-01-11T18:44:51;-3.10;99.90
5196;DHT22;2617;51.006;12.436;2024-01-11T18:49:53;-3.10;99.90
5196;DHT22;2617;51.006;12.436;2024-01-11T18:54:56;-3.10;99.90
5196;DHT22;2617;51.006;12.436;2024-01-11T18:59:59;-3.10;99.90
5196;DHT22;2617;51.006;12.436;2024-01-11T19:05:02;-3.00;99.90
5196;DHT22;2617;51.006;12.436;2024-01-11T19:10:05;-3.00;99.90
5196;DHT22;2617;51.006;12.436;2024-01-11T19:15:08;-3.00;99.90
5196;DHT22;2617;51.006;12.436;2024-01-11T19:20:11;-3.00;99.90
5196;DHT22;2617;51.006;12.436;2024-01-11T19:25:15;-3.00;99.90
5196;DHT22;2617;51.006;12.436;2024-01-11T19:30:17;-3.00;99.90
5196;DHT22;2617;51.006;12.436;2024-01-11T19:35:20;-3.00;99.90
5196;DHT22;2617;51.006;12.436;2024-01-11T19:40:22;-3.00;99.90
5196;DHT22;2617;51.006;12.436;2024-01-11T19:45:24;-3.00;99.90
5196;DHT22;2617;51.006;12.436;2024-01-11T19:50:27;-3.00;99.90
5196;DHT22;2617;51.006;12.436;2024-01-11T19:55:31;-3.00;99.90
5196;DHT22;2617;51.006;12.436;2024-01-11T20:00:33;-2.90;99.90
5196;DHT22;2617;51.006;12.436;2024-01-11T20:05:35;-2.90;99.90
5196;DHT22;2617;51.006;12.436;2024-01-11T20:10:39;-2.90;99.90
5196;DHT22;2617;51.006;12.436;2024-01-11T20:15:42;-2.80;99.90
5196;DHT22;2617;51.006;12.436;2024-01-11T20:20:44;-2.90;99.90
5196;DHT22;2617;51.006;12.436;2024-01-11T20:25:47;-2.80;99.90
5196;DHT22;2617;51.006;12.436;2024-01-11T20:30:50;-2.80;99.90
5196;DHT22;2617;51.006;12.436;2024-01-11T20:35:53;-2.80;99.90
5196;DHT22;2617;51.006;12.436;2024-01-11T20:40:56;-2.70;99.90
5196;DHT22;2617;51.006;12.436;2024-01-11T20:45:58;-2.80;99.90
5196;DHT22;2617;51.006;12.436;2024-01-11T20:51:01;-2.70;99.90
5196;DHT22;2617;51.006;12.436;2024-01-11T20:56:03;-2.60;99.90
5196;DHT22;2617;51.006;12.436;2024-01-11T21:01:06;-2.60;99.90
5196;DHT22;2617;51.006;12.436;2024-01-11T21:06:08;-2.60;99.90
5196;DHT22;2617;51.006;12.436;2024-01-11T21:11:11;-2.60;99.90
5196;DHT22;2617;51.006;12.436;2024-01-11T21:16:14;-2.50;99.90
5196;DHT22;2617;51.006;12.436;2024-01-11T21:21:16;-2.60;99.90
5196;DHT22;2617;51.006;12.436;2024-01-11T21:26:19;-2.50;99.90
5196;DHT22;2617;51.006;12.436;2024-01-11T21:31:24;-2.50;99.90
5196;DHT22;2617;51.006;12.436;2024-01-11T21:36:26;-2.40;99.90
5196;DHT22;2617;51.006;12.436;2024-01-11T21:41:28;-2.40;99.90
5196;DHT22;2617;51.006;12.436;2024-01-11T21:46:32;-2.40;99.90
5196;DHT22;2617;51.006;12.436;2024-01-11T21:51:34;-2.40;99.90
5196;DHT22;2617;51.006;12.436;2024-01-11T21:56:37;-2.40;99.90
5196;DHT22;2617;51.006;12.436;2024-01-11T22:01:40;-2.40;99.90
5196;DHT22;2617;51.006;12.436;2024-01-11T22:06:45;-2.30;99.90
5196;DHT22;2617;51.006;12.436;2024-01-11T22:11:48;-2.30;99.90
5196;DHT22;2617;51.006;12.436;2024-01-11T22:16:50;-2.30;99.90
5196;DHT22;2617;51.006;12.436;2024-01-11T22:21:52;-2.30;99.90
5196;DHT22;2617;51.006;12.436;2024-01-11T22:26:55;-2.30;99.90
5196;DHT22;2617;51.006;12.436;2024-01-11T22:31:57;-2.20;99.90
5196;DHT22;2617;51.006;12.436;2024-01-11T22:37:00;-2.20;99.90
5196;DHT22;2617;51.006;12.436;2024-01-11T22:42:02;-2.20;99.90
5196;DHT22;2617;51.006;12.436;2024-01-11T22:47:06;-2.20;99.90
5196;DHT22;2617;51.006;12.436;2024-01-11T22:52:08;-2.20;99.90
5196;DHT22;2617;51.006;12.436;2024-01-11T22:57:12;-2.10;99.90
5196;DHT22;2617;51.006;12.436;2024-01-11T23:02:13;-2.10;99.90
5196;DHT22;2617;51.006;12.436;2024-01-11T23:07:16;-2.10;99.90
5196;DHT22;2617;51.006;12.436;2024-01-11T23:12:18;-2.10;99.90
5196;DHT22;2617;51.006;12.436;2024-01-11T23:17:21;-2.10;99.90
5196;DHT22;2617;51.006;12.436;2024-01-11T23:22:24;-2.10;99.90
5196;DHT22;2617;51.006;12.436;2024-01-11T23:27:26;-2.10;99.90
5196;DHT22;2617;51.006;12.436;2024-01-11T23:32:29;-2.00;99.90
5196;DHT22;2617;51.006;12.436;2024-01-11T23:37:32;-2.10;99.90
5196;DHT22;2617;51.006;12.436;2024-01-11T23:42:34;-2.00;99.90
5196;DHT22;2617;51.006;12.436;2024-01-11T23:47:37;-2.00;99.90
5196;DHT22;2617;51.006;12.436;2024-01-11T23:52:40;-2.00;99.90
5196;DHT22;2617;51.006;12.436;2024-01-11T23:57:42;-2.00;99.90
